Time;durP1;ratioP1;P1;durP2;ratioP2;P2;SDS_P1;SDS_P2;PMS_P1;PMS_P2;Temp;Humidity;BMP_temperature;BMP_pressure;BME280_temperature;BME280_humidity;BME280_pressure;Samples;Min_cycle;Max_cycle;Signal;HPM_P1;HPM_P2
2022/01/18 00:01:21;;;;;;;14.50;4.40;;;8.90;99.90;;;;;;5067434;28;20510;-41
2022/01/18 00:03:46;;;;;;;15.03;4.50;;;8.90;99.90;;;;;;5069032;28;20901;-42
2022/01/18 00:06:12;;;;;;;18.00;7.00;;;8.90;99.90;;;;;;5060358;28;20440;-40
2022/01/18 00:08:38;;;;;;;15.80;4.90;;;9.00;99.90;;;;;;5069257;28;20199;-43
2022/01/18 00:11:04;;;;;;;15.90;5.73;;;8.90;99.90;;;;;;5069022;28;20624;-40
2022/01/18 00:13:39;;;;;;;14.33;4.33;;;8.90;99.90;;;;;;5071681;28;20481;-42
2022/01/18 00:18:34;;;;;;;17.57;4.97;;;8.60;99.90;;;;;;5089929;28;20423;-40
2022/01/18 00:23:33;;;;;;;16.33;4.83;;;8.40;99.90;;;;;;5065959;28;20430;-44
2022/01/18 00:25:59;;;;;;;16.50;5.00;;;8.40;99.90;;;;;;5068953;28;20514;-40
2022/01/18 00:28:28;;;;;;;17.17;5.63;;;8.50;99.90;;;;;;5069295;28;20419;-40
2022/01/18 00:33:44;;;;;;;15.90;4.83;;;8.60;99.90;;;;;;5068855;28;20423;-41
2022/01/18 00:36:23;;;;;;;13.93;4.43;;;8.40;99.90;;;;;;5080338;28;20432;-40
2022/01/18 00:38:49;;;;;;;15.73;4.80;;;8.20;99.90;;;;;;5067753;28;20778;-41
2022/01/18 00:41:20;;;;;;;16.33;4.67;;;8.20;99.90;;;;;;5068190;28;20419;-41
2022/01/18 00:43:46;;;;;;;13.23;4.20;;;8.40;99.90;;;;;;5068373;28;20215;-40
2022/01/18 00:46:13;;;;;;;14.63;4.97;;;8.40;99.90;;;;;;5068645;28;20458;-41
2022/01/18 00:48:40;;;;;;;14.57;4.90;;;8.50;99.90;;;;;;5068697;28;20419;-40
2022/01/18 00:51:09;;;;;;;14.93;4.37;;;8.40;99.90;;;;;;5055771;28;20440;-41
2022/01/18 00:53:37;;;;;;;13.13;4.07;;;8.40;99.90;;;;;;5067093;28;20946;-40
2022/01/18 00:56:19;;;;;;;14.53;4.20;;;8.40;99.90;;;;;;5068330;28;20820;-40
2022/01/18 00:58:47;;;;;;;24.63;5.40;;;8.30;99.90;;;;;;5068464;28;20427;-39
2022/01/18 01:01:14;;;;;;;13.50;3.90;;;8.30;99.90;;;;;;5068152;28;20536;-40
2022/01/18 01:03:40;;;;;;;10.17;3.87;;;8.40;99.90;;;;;;5068144;28;20427;-40
2022/01/18 01:06:07;;;;;;;13.97;4.60;;;8.30;99.90;;;;;;5060564;28;20451;-39
2022/01/18 01:08:34;;;;;;;14.43;4.73;;;8.40;99.90;;;;;;5067017;28;20931;-39
2022/01/18 01:11:04;;;;;;;15.70;5.33;;;8.30;99.90;;;;;;5067436;28;20903;-40
2022/01/18 01:13:31;;;;;;;14.73;4.67;;;8.50;99.90;;;;;;5068207;28;20811;-40
2022/01/18 01:35:11;;;;;;;12.70;3.77;;;8.30;99.90;;;;;;5050360;28;20501;-39
2022/01/18 01:45:27;;;;;;;8.80;3.00;;;8.20;99.90;;;;;;5067740;28;20433;-40
2022/01/18 01:47:54;;;;;;;8.80;2.80;;;8.30;99.90;;;;;;5067705;28;20797;-40
2022/01/18 01:50:23;;;;;;;7.87;2.80;;;8.20;99.90;;;;;;5064067;28;20467;-40
2022/01/18 01:52:54;;;;;;;12.17;3.57;;;8.10;99.90;;;;;;5058871;28;20438;-40
2022/01/18 01:55:20;;;;;;;12.00;3.30;;;8.10;99.90;;;;;;5067136;28;20435;-39
2022/01/18 01:57:46;;;;;;;12.17;3.70;;;8.10;99.90;;;;;;5067726;28;20427;-40
2022/01/18 02:00:16;;;;;;;8.63;3.10;;;8.10;99.90;;;;;;5066749;28;21051;-40
2022/01/18 02:02:43;;;;;;;7.77;3.27;;;8.00;99.90;;;;;;5067317;28;20282;-39
2022/01/18 02:05:10;;;;;;;10.17;3.73;;;8.00;99.90;;;;;;5066338;28;20971;-39
2022/01/18 02:07:36;;;;;;;6.30;2.50;;;8.00;99.90;;;;;;5057219;28;20423;-41
2022/01/18 02:10:07;;;;;;;9.37;3.23;;;8.00;99.90;;;;;;5066711;28;20415;-39
2022/01/18 02:12:33;;;;;;;15.27;3.23;;;8.00;99.90;;;;;;5067152;28;20538;-40
2022/01/18 02:15:02;;;;;;;11.63;3.87;;;8.00;99.90;;;;;;5074245;28;20430;-39
2022/01/18 02:22:57;;;;;;;11.33;4.03;;;7.90;99.90;;;;;;5052657;28;20462;-40
2022/01/18 02:25:24;;;;;;;12.13;5.23;;;7.90;99.90;;;;;;5067130;28;20793;-40
2022/01/18 02:27:50;;;;;;;10.60;3.23;;;7.90;99.90;;;;;;5067429;28;20428;-42
2022/01/18 02:30:16;;;;;;;12.03;3.83;;;7.90;99.90;;;;;;5066383;28;20576;-40
2022/01/18 02:32:41;;;;;;;9.97;3.93;;;8.00;99.90;;;;;;5066950;28;20529;-40
2022/01/18 02:35:08;;;;;;;14.07;3.90;;;7.80;99.90;;;;;;5067465;28;20655;-39
2022/01/18 02:37:33;;;;;;;14.13;4.47;;;7.80;99.90;;;;;;5051090;28;20714;-40
2022/01/18 02:40:00;;;;;;;14.80;3.93;;;7.80;99.90;;;;;;5066372;28;20471;-40
2022/01/18 02:42:30;;;;;;;20.67;4.87;;;7.80;99.90;;;;;;5068628;28;20622;-41
2022/01/18 02:44:56;;;;;;;12.50;3.50;;;7.70;99.90;;;;;;5067213;28;20473;-41
2022/01/18 02:47:23;;;;;;;14.70;3.93;;;7.70;99.90;;;;;;5066960;28;20869;-40
2022/01/18 02:49:50;;;;;;;19.83;4.50;;;7.60;99.90;;;;;;5066528;28;20195;-40
2022/01/18 02:52:16;;;;;;;13.00;5.00;;;7.70;99.90;;;;;;5054074;28;20447;-40
2022/01/18 02:54:43;;;;;;;11.23;3.77;;;7.70;99.90;;;;;;5063618;28;20473;-39
2022/01/18 02:57:15;;;;;;;17.80;4.77;;;7.60;99.90;;;;;;5066384;28;20489;-39
2022/01/18 03:00:05;;;;;;;17.03;5.03;;;7.60;99.90;;;;;;5066337;28;20489;-39
2022/01/18 03:05:16;;;;;;;17.57;4.77;;;7.50;99.90;;;;;;5066508;28;20442;-39
2022/01/18 03:07:43;;;;;;;11.77;4.50;;;7.70;99.90;;;;;;5059016;28;20430;-40
2022/01/18 03:10:11;;;;;;;18.50;4.53;;;7.90;99.90;;;;;;5065711;28;20428;-42
2022/01/18 03:12:37;;;;;;;12.80;4.33;;;7.70;99.90;;;;;;5066993;28;20897;-41
2022/01/18 03:15:04;;;;;;;12.47;4.33;;;7.90;99.90;;;;;;5075373;28;20442;-39
2022/01/18 03:17:30;;;;;;;12.90;6.00;;;7.70;99.90;;;;;;5088377;28;20764;-39
2022/01/18 03:19:56;;;;;;;12.60;4.30;;;7.60;99.90;;;;;;5089684;28;20470;-39
2022/01/18 03:22:22;;;;;;;9.37;4.50;;;7.80;99.90;;;;;;5067983;28;20279;-40
2022/01/18 03:24:58;;;;;;;11.93;3.90;;;7.70;99.90;;;;;;5070229;28;20185;-39
2022/01/18 03:30:10;;;;;;;14.37;5.00;;;7.60;99.90;;;;;;5069440;28;20427;-39
2022/01/18 03:32:37;;;;;;;16.30;4.73;;;7.60;99.90;;;;;;5069912;28;20443;-41
2022/01/18 03:35:05;;;;;;;16.10;4.23;;;7.90;99.90;;;;;;5070308;28;21107;-40
2022/01/18 03:37:30;;;;;;;14.80;4.23;;;7.80;99.90;;;;;;5057998;28;20505;-39
2022/01/18 03:39:56;;;;;;;17.83;5.23;;;7.80;99.90;;;;;;5069316;28;20562;-39
2022/01/18 03:42:44;;;;;;;14.90;3.63;;;7.70;99.90;;;;;;5069736;28;20197;-40
2022/01/18 03:45:39;;;;;;;11.33;3.53;;;7.80;99.90;;;;;;5069711;28;20238;-39
2022/01/18 03:48:09;;;;;;;16.53;4.90;;;7.80;99.90;;;;;;5057150;28;20458;-39
2022/01/18 03:50:34;;;;;;;13.97;4.97;;;7.70;99.90;;;;;;5069109;28;20430;-40
2022/01/18 03:53:00;;;;;;;14.50;4.47;;;7.80;99.90;;;;;;5061058;28;20443;-39
2022/01/18 03:55:26;;;;;;;11.50;5.10;;;7.80;99.90;;;;;;5069369;28;20284;-39
2022/01/18 03:57:51;;;;;;;11.70;4.10;;;7.80;99.90;;;;;;5069529;28;20577;-40
2022/01/18 04:00:22;;;;;;;9.00;3.63;;;7.60;99.90;;;;;;5069021;28;20232;-39
2022/01/18 04:02:49;;;;;;;13.97;4.30;;;7.60;99.90;;;;;;5069165;28;20189;-40
2022/01/18 04:05:16;;;;;;;17.57;5.53;;;7.60;99.90;;;;;;5085437;28;20917;-39
2022/01/18 04:07:43;;;;;;;7.30;3.00;;;7.60;99.90;;;;;;5061529;28;20809;-39
2022/01/18 04:10:09;;;;;;;17.50;4.50;;;7.60;99.90;;;;;;5068908;28;20952;-39
2022/01/18 04:12:35;;;;;;;13.87;5.07;;;7.60;99.90;;;;;;5069447;28;20450;-39
2022/01/18 04:15:03;;;;;;;16.90;4.50;;;7.50;99.90;;;;;;5083796;28;20775;-39
2022/01/18 04:28:21;;;;;;;8.87;4.17;;;7.40;99.90;;;;;;5068941;28;20520;-39
2022/01/18 04:30:47;;;;;;;10.80;3.70;;;7.60;99.90;;;;;;5067912;28;20434;-39
2022/01/18 04:33:12;;;;;;;13.20;4.10;;;7.30;99.90;;;;;;5068759;28;20850;-40
2022/01/18 04:35:38;;;;;;;12.40;3.83;;;7.40;99.90;;;;;;5069194;28;20309;-39
2022/01/18 04:38:04;;;;;;;11.13;5.30;;;7.30;99.90;;;;;;5057653;28;20196;-39
2022/01/18 04:40:32;;;;;;;15.73;5.10;;;7.30;99.90;;;;;;5068410;28;20219;-39
2022/01/18 04:48:28;;;;;;;10.23;3.90;;;7.40;99.90;;;;;;5056585;28;20434;-39
2022/01/18 04:51:00;;;;;;;14.33;3.37;;;7.30;99.90;;;;;;5066781;28;20441;-39
2022/01/18 04:53:29;;;;;;;10.33;3.70;;;7.40;99.90;;;;;;5054873;28;20455;-40
2022/01/18 04:55:56;;;;;;;11.57;4.03;;;7.50;99.90;;;;;;5066424;28;20921;-41
2022/01/18 04:58:24;;;;;;;14.80;4.13;;;7.70;99.90;;;;;;5068488;28;20929;-39
2022/01/18 05:00:51;;;;;;;11.67;3.60;;;7.30;99.90;;;;;;5067556;28;20566;-39
2022/01/18 05:03:17;;;;;;;12.77;4.00;;;7.40;99.90;;;;;;5068877;28;20922;-39
2022/01/18 05:05:44;;;;;;;9.43;3.87;;;7.30;99.90;;;;;;5068592;28;20431;-39
2022/01/18 05:08:13;;;;;;;15.60;5.67;;;7.40;99.90;;;;;;5055626;28;20258;-39
2022/01/18 05:10:40;;;;;;;13.63;4.93;;;7.60;99.90;;;;;;5066954;28;20419;-40
2022/01/18 05:13:31;;;;;;;11.70;4.63;;;7.40;99.90;;;;;;5068354;28;20907;-40
2022/01/18 05:22:58;;;;;;;13.27;4.07;;;7.60;99.90;;;;;;5067270;28;20586;-39
2022/01/18 05:24:13;;;;;;;9.20;4.30;;;7.50;99.90;;;;;;5064562;28;20434;-39
2022/01/18 05:26:39;;;;;;;17.63;5.10;;;7.50;99.90;;;;;;5067667;28;20435;-40
2022/01/18 05:29:04;;;;;;;13.33;4.30;;;7.30;99.90;;;;;;5068190;28;20966;-39
2022/01/18 05:31:30;;;;;;;12.87;4.00;;;7.30;99.90;;;;;;5066934;28;20630;-39
2022/01/18 05:33:56;;;;;;;11.70;3.33;;;7.30;99.90;;;;;;5067813;28;20203;-39
2022/01/18 05:36:22;;;;;;;9.43;3.90;;;7.30;99.90;;;;;;5067703;28;20200;-40
2022/01/18 05:38:48;;;;;;;7.80;3.37;;;7.30;99.90;;;;;;5057758;28;20216;-39
2022/01/18 05:41:16;;;;;;;9.40;3.90;;;7.50;99.90;;;;;;5059263;28;20498;-40
2022/01/18 05:43:42;;;;;;;11.87;4.47;;;7.40;99.90;;;;;;5062525;28;20192;-40
2022/01/18 05:46:08;;;;;;;11.37;4.60;;;7.60;99.90;;;;;;5060241;28;20435;-39
2022/01/18 05:48:34;;;;;;;11.90;5.30;;;7.40;99.90;;;;;;5064063;28;20443;-40
2022/01/18 05:50:59;;;;;;;19.30;7.03;;;7.20;99.90;;;;;;5070878;28;20246;-40
2022/01/18 05:53:30;;;;;;;22.70;10.63;;;7.10;99.90;;;;;;5053161;28;20227;-41
2022/01/18 05:55:57;;;;;;;19.90;8.93;;;7.20;99.90;;;;;;5067660;28;20201;-39
2022/01/18 05:58:23;;;;;;;11.87;7.53;;;7.20;99.90;;;;;;5063902;28;20501;-40
2022/01/18 06:00:52;;;;;;;23.63;8.60;;;7.30;99.90;;;;;;5065405;28;20477;-39
2022/01/18 06:03:35;;;;;;;20.00;9.67;;;7.40;99.90;;;;;;5067180;28;20424;-39
2022/01/18 06:08:45;;;;;;;16.33;8.40;;;7.40;99.90;;;;;;5052390;28;20564;-41
2022/01/18 06:11:11;;;;;;;18.47;8.10;;;7.10;99.90;;;;;;5064519;28;20438;-39
2022/01/18 06:13:37;;;;;;;19.90;8.03;;;7.20;99.90;;;;;;5070112;28;20438;-41
2022/01/18 06:16:03;;;;;;;24.00;8.53;;;7.20;99.90;;;;;;5081766;28;20189;-39
2022/01/18 06:18:29;;;;;;;15.43;7.80;;;7.20;99.90;;;;;;5066837;28;20702;-40
2022/01/18 06:20:54;;;;;;;19.57;7.20;;;7.30;99.90;;;;;;5066664;28;20479;-40
2022/01/18 06:23:21;;;;;;;15.37;8.30;;;7.60;99.90;;;;;;5060216;28;20694;-42
2022/01/18 06:25:47;;;;;;;15.60;7.97;;;7.30;99.90;;;;;;5066970;28;20185;-39
2022/01/18 06:28:12;;;;;;;14.53;8.23;;;7.50;99.90;;;;;;5066675;28;20438;-39
2022/01/18 06:30:38;;;;;;;18.57;8.47;;;7.30;99.90;;;;;;5066545;28;20185;-39
2022/01/18 06:33:04;;;;;;;16.60;8.40;;;7.50;99.90;;;;;;5075193;28;20570;-40
2022/01/18 06:35:30;;;;;;;19.27;8.60;;;7.40;99.90;;;;;;5077990;28;20336;-40
2022/01/18 06:37:55;;;;;;;17.00;8.07;;;7.40;99.90;;;;;;5073101;28;20446;-40
2022/01/18 06:40:21;;;;;;;16.90;9.00;;;7.20;99.90;;;;;;5063502;28;20358;-39
2022/01/18 06:42:47;;;;;;;26.30;11.00;;;7.40;99.90;;;;;;5062211;28;20177;-41
2022/01/18 06:45:13;;;;;;;20.27;10.70;;;7.30;99.90;;;;;;5064399;28;21035;-40
2022/01/18 06:47:39;;;;;;;28.10;10.07;;;7.20;99.90;;;;;;5065844;28;20733;-40
2022/01/18 06:50:06;;;;;;;16.07;9.20;;;7.40;99.90;;;;;;5066477;28;20184;-39
2022/01/18 06:52:32;;;;;;;21.23;8.63;;;7.30;99.90;;;;;;5064432;28;20439;-40
2022/01/18 06:54:58;;;;;;;16.23;8.73;;;7.30;99.90;;;;;;5061587;28;20457;-39
2022/01/18 06:57:24;;;;;;;20.60;9.30;;;7.30;99.90;;;;;;5070725;28;20254;-40
2022/01/18 06:59:50;;;;;;;26.13;11.43;;;7.30;99.90;;;;;;5069340;28;20219;-39
2022/01/18 07:02:15;;;;;;;21.17;10.30;;;7.40;99.90;;;;;;5072641;28;20487;-39
2022/01/18 07:04:41;;;;;;;26.40;11.20;;;7.20;99.90;;;;;;5070759;28;20181;-39
2022/01/18 07:07:07;;;;;;;29.23;12.03;;;7.30;99.90;;;;;;5070033;28;20584;-40
2022/01/18 07:09:34;;;;;;;17.70;10.87;;;7.10;99.90;;;;;;5053795;28;20646;-39
2022/01/18 07:12:00;;;;;;;25.23;11.63;;;7.10;99.90;;;;;;5070117;28;20191;-40
2022/01/18 07:14:26;;;;;;;24.30;11.63;;;7.20;99.90;;;;;;5070507;28;20435;-39
2022/01/18 07:16:52;;;;;;;25.30;12.27;;;7.30;99.90;;;;;;5070587;28;20219;-41
2022/01/18 07:19:18;;;;;;;26.10;13.17;;;7.40;99.90;;;;;;5070886;28;20213;-40
2022/01/18 07:21:44;;;;;;;28.10;15.00;;;7.10;99.90;;;;;;5069131;28;20231;-40
2022/01/18 07:24:35;;;;;;;26.93;13.00;;;7.20;99.90;;;;;;5059629;28;20447;-40
2022/01/18 07:27:01;;;;;;;24.33;13.90;;;7.30;99.90;;;;;;5065552;28;20176;-40
2022/01/18 07:29:27;;;;;;;30.17;14.67;;;7.30;99.90;;;;;;5070777;28;20526;-40
2022/01/18 07:31:53;;;;;;;26.00;14.37;;;7.30;99.90;;;;;;5070048;28;20200;-39
2022/01/18 07:34:18;;;;;;;28.80;16.40;;;7.30;99.90;;;;;;5070211;28;20199;-39
2022/01/18 07:36:44;;;;;;;26.67;15.50;;;7.20;99.90;;;;;;5090212;28;20220;-40
2022/01/18 07:39:10;;;;;;;29.23;16.03;;;7.40;99.90;;;;;;5068618;28;20241;-40
2022/01/18 07:41:35;;;;;;;32.37;15.20;;;7.20;99.90;;;;;;5069013;28;20189;-39
2022/01/18 07:44:01;;;;;;;31.87;17.10;;;7.40;99.90;;;;;;5070031;28;20185;-40
2022/01/18 07:46:27;;;;;;;26.17;15.33;;;7.20;99.90;;;;;;5070317;28;20181;-39
2022/01/18 07:48:52;;;;;;;37.70;17.90;;;7.40;99.90;;;;;;5069595;28;20651;-40
2022/01/18 07:51:18;;;;;;;26.10;16.17;;;7.40;99.90;;;;;;5068725;28;20201;-39
2022/01/18 07:53:44;;;;;;;28.07;17.27;;;7.30;99.90;;;;;;5067878;28;20231;-39
2022/01/18 07:56:10;;;;;;;27.40;15.67;;;7.30;99.90;;;;;;5069493;28;20221;-39
2022/01/18 07:58:35;;;;;;;26.80;16.50;;;7.50;99.90;;;;;;5070635;28;20379;-39
2022/01/18 08:01:01;;;;;;;29.50;16.27;;;7.40;99.90;;;;;;5069739;28;20458;-39
2022/01/18 08:03:29;;;;;;;29.50;17.27;;;7.30;99.90;;;;;;5068242;28;20457;-39
2022/01/18 08:05:55;;;;;;;30.37;18.60;;;7.30;99.90;;;;;;5069616;28;20991;-40
2022/01/18 08:08:21;;;;;;;29.90;17.93;;;7.40;99.90;;;;;;5063841;28;20440;-39
2022/01/18 08:10:47;;;;;;;29.17;16.10;;;7.40;99.90;;;;;;5068384;28;20917;-39
2022/01/18 08:13:13;;;;;;;33.63;18.87;;;7.30;99.90;;;;;;5070208;28;20559;-40
2022/01/18 08:15:41;;;;;;;32.13;17.10;;;7.10;99.90;;;;;;5069223;28;20431;-40
2022/01/18 08:18:11;;;;;;;29.80;17.77;;;7.40;99.90;;;;;;5068338;28;20434;-40
2022/01/18 08:20:37;;;;;;;35.87;17.57;;;7.30;99.90;;;;;;5088943;28;20570;-39
2022/01/18 08:23:03;;;;;;;24.77;14.97;;;7.20;99.90;;;;;;5079302;28;20662;-39
2022/01/18 08:25:30;;;;;;;32.97;17.73;;;7.30;99.90;;;;;;5069860;28;20193;-40
2022/01/18 08:27:56;;;;;;;26.43;16.43;;;7.30;99.90;;;;;;5069100;28;20424;-40
2022/01/18 08:30:22;;;;;;;33.90;16.10;;;7.40;99.90;;;;;;5068326;28;20770;-40
2022/01/18 08:32:49;;;;;;;25.80;15.00;;;7.30;99.90;;;;;;5069122;28;20431;-40
2022/01/18 08:35:16;;;;;;;24.50;16.37;;;7.30;99.90;;;;;;5056856;28;20198;-39
2022/01/18 08:37:42;;;;;;;24.60;15.77;;;7.30;99.90;;;;;;5060346;28;20427;-39
2022/01/18 08:40:09;;;;;;;29.67;16.30;;;7.20;99.90;;;;;;5064054;28;20470;-39
2022/01/18 08:42:34;;;;;;;29.77;17.47;;;7.40;99.90;;;;;;5068288;28;20189;-40
2022/01/18 08:45:01;;;;;;;33.87;18.03;;;7.50;99.90;;;;;;5068379;28;21003;-39
2022/01/18 08:47:26;;;;;;;22.60;16.20;;;7.30;99.90;;;;;;5068481;28;20509;-40
2022/01/18 08:49:52;;;;;;;35.30;17.50;;;7.60;99.90;;;;;;5068045;28;20514;-40
2022/01/18 08:52:19;;;;;;;32.83;17.63;;;7.30;99.90;;;;;;5068498;28;20430;-39
2022/01/18 08:54:44;;;;;;;39.07;17.97;;;7.30;99.90;;;;;;5062108;28;20201;-40
2022/01/18 08:57:12;;;;;;;33.80;20.07;;;7.30;99.90;;;;;;5068193;28;20462;-39
2022/01/18 08:59:39;;;;;;;39.10;20.90;;;7.20;99.90;;;;;;5067350;28;20213;-39
2022/01/18 09:02:06;;;;;;;38.67;18.10;;;7.40;99.90;;;;;;5066959;28;20955;-40
2022/01/18 09:04:33;;;;;;;29.30;18.30;;;7.20;99.90;;;;;;5068430;28;20812;-40
2022/01/18 09:07:03;;;;;;;36.80;18.43;;;7.40;99.90;;;;;;5068273;28;20423;-40
2022/01/18 09:09:29;;;;;;;27.77;16.97;;;7.50;99.90;;;;;;5059028;28;20451;-40
2022/01/18 09:11:55;;;;;;;30.70;16.67;;;7.50;99.90;;;;;;5067359;28;20944;-40
2022/01/18 09:14:20;;;;;;;29.60;17.50;;;7.40;99.90;;;;;;5075969;28;20201;-41
2022/01/18 09:16:46;;;;;;;27.27;16.43;;;7.40;99.90;;;;;;5087417;28;20294;-39
2022/01/18 09:19:12;;;;;;;29.30;16.50;;;7.50;99.90;;;;;;5067874;28;20193;-39
2022/01/18 09:21:38;;;;;;;28.80;16.23;;;7.40;99.90;;;;;;5066893;28;20181;-39
2022/01/18 09:24:04;;;;;;;30.57;16.77;;;7.60;99.90;;;;;;5062791;28;20283;-39
2022/01/18 09:26:30;;;;;;;34.50;17.50;;;7.60;99.90;;;;;;5062775;28;20670;-40
2022/01/18 09:28:55;;;;;;;30.20;16.40;;;7.90;99.90;;;;;;5067482;28;20512;-39
2022/01/18 09:31:21;;;;;;;29.50;17.60;;;7.60;99.90;;;;;;5067084;28;20459;-40
2022/01/18 09:33:47;;;;;;;25.67;17.73;;;7.70;99.90;;;;;;5067810;28;20250;-40
2022/01/18 09:36:13;;;;;;;29.10;16.47;;;7.70;99.90;;;;;;5056148;28;20571;-39
2022/01/18 09:38:38;;;;;;;32.57;16.43;;;7.70;99.90;;;;;;5056703;28;20205;-39
2022/01/18 09:41:10;;;;;;;29.63;16.73;;;7.70;99.90;;;;;;5054852;28;20270;-39
2022/01/18 09:43:38;;;;;;;25.53;15.37;;;7.70;99.90;;;;;;5066833;28;20464;-39
2022/01/18 09:46:05;;;;;;;27.60;16.67;;;7.80;99.90;;;;;;5067532;28;20416;-40
2022/01/18 09:48:31;;;;;;;27.77;14.80;;;8.00;99.90;;;;;;5065783;28;20426;-39
2022/01/18 09:50:59;;;;;;;28.67;16.97;;;7.80;99.90;;;;;;5084381;28;20430;-40
2022/01/18 09:53:25;;;;;;;28.17;14.30;;;8.00;99.90;;;;;;5071421;28;20184;-40
2022/01/18 09:55:53;;;;;;;29.97;16.03;;;7.80;99.90;;;;;;5054720;28;20457;-40
2022/01/18 09:58:20;;;;;;;23.33;15.10;;;7.80;99.90;;;;;;5067098;28;20921;-39
2022/01/18 10:00:48;;;;;;;26.07;14.70;;;7.90;99.90;;;;;;5070264;28;20458;-40
2022/01/18 10:03:34;;;;;;;24.70;15.97;;;7.90;99.90;;;;;;5087390;28;20497;-41
2022/01/18 10:06:02;;;;;;;28.67;16.43;;;8.00;99.90;;;;;;5087214;28;20406;-40
2022/01/18 10:08:28;;;;;;;26.53;16.00;;;7.80;99.90;;;;;;5087019;28;20472;-39
2022/01/18 10:10:57;;;;;;;26.17;15.60;;;8.00;99.90;;;;;;5057883;28;20438;-39
2022/01/18 10:13:26;;;;;;;35.37;16.37;;;8.10;99.90;;;;;;5066606;28;20437;-39
2022/01/18 10:16:07;;;;;;;26.70;17.23;;;7.90;99.90;;;;;;5064286;28;20415;-39
2022/01/18 10:18:48;;;;;;;25.83;16.33;;;7.90;99.90;;;;;;5071819;28;20430;-39
2022/01/18 10:21:23;;;;;;;25.53;14.70;;;8.10;99.90;;;;;;5076544;28;20459;-39
2022/01/18 10:23:49;;;;;;;25.17;14.23;;;7.90;99.90;;;;;;5063559;28;20936;-40
2022/01/18 10:26:19;;;;;;;26.43;16.80;;;7.70;99.90;;;;;;5063079;28;20442;-40
2022/01/18 10:28:45;;;;;;;33.47;16.50;;;8.00;99.90;;;;;;5071800;28;20407;-40
2022/01/18 10:31:42;;;;;;;25.30;14.67;;;8.00;99.90;;;;;;5074279;28;20443;-41
2022/01/18 10:37:01;;;;;;;26.67;17.13;;;8.10;99.90;;;;;;5068052;28;20438;-40
2022/01/18 10:39:32;;;;;;;27.80;16.00;;;8.10;99.90;;;;;;5065085;28;20471;-39
2022/01/18 10:41:58;;;;;;;30.83;16.30;;;8.30;99.90;;;;;;5065367;28;20423;-39
2022/01/18 10:44:24;;;;;;;27.40;16.73;;;8.10;99.90;;;;;;5073095;28;20442;-41
2022/01/18 10:46:55;;;;;;;26.23;16.70;;;8.20;99.90;;;;;;5073430;28;20947;-40
2022/01/18 10:49:30;;;;;;;28.00;16.60;;;8.30;99.90;;;;;;5072218;28;20548;-40
2022/01/18 10:52:05;;;;;;;30.13;17.00;;;8.40;99.90;;;;;;5084445;28;20761;-40
2022/01/18 10:54:50;;;;;;;31.17;15.50;;;8.20;99.90;;;;;;5082719;28;20836;-40
2022/01/18 10:57:26;;;;;;;29.53;17.03;;;8.40;99.90;;;;;;5069461;28;20435;-40
2022/01/18 11:00:05;;;;;;;29.70;17.47;;;8.30;99.90;;;;;;5067030;28;21067;-39
2022/01/18 11:02:36;;;;;;;25.03;16.10;;;8.30;99.90;;;;;;5073087;28;20434;-40
2022/01/18 11:05:15;;;;;;;33.70;16.13;;;8.20;99.90;;;;;;5073107;28;20419;-39
2022/01/18 11:07:43;;;;;;;26.43;15.87;;;8.50;99.90;;;;;;5073188;28;20575;-39
2022/01/18 11:10:09;;;;;;;31.07;16.30;;;8.60;99.90;;;;;;5064554;28;20431;-40
2022/01/18 11:13:01;;;;;;;26.00;15.60;;;8.60;99.90;;;;;;5070091;28;20534;-39
2022/01/18 11:15:28;;;;;;;21.30;14.20;;;8.70;99.90;;;;;;5075422;28;20847;-41
2022/01/18 11:18:03;;;;;;;29.90;13.93;;;8.80;99.90;;;;;;5072985;28;20435;-39
2022/01/18 11:20:34;;;;;;;23.43;13.90;;;8.80;99.90;;;;;;5072634;28;20548;-39
2022/01/18 11:23:03;;;;;;;26.53;14.80;;;8.80;99.90;;;;;;5073090;28;20433;-40
2022/01/18 11:25:30;;;;;;;20.87;12.70;;;8.90;99.90;;;;;;5069868;28;20438;-40
2022/01/18 11:27:58;;;;;;;26.50;14.93;;;8.70;99.90;;;;;;5073225;28;20518;-40
2022/01/18 11:30:29;;;;;;;25.73;15.13;;;9.10;99.90;;;;;;5072353;28;20459;-40
2022/01/18 11:32:56;;;;;;;26.27;14.57;;;8.90;99.90;;;;;;5087316;28;20437;-39
2022/01/18 11:35:49;;;;;;;23.27;14.97;;;9.20;99.90;;;;;;5082519;28;20999;-40
2022/01/18 11:38:27;;;;;;;26.70;14.57;;;9.00;99.90;;;;;;5067056;28;20519;-39
2022/01/18 11:40:55;;;;;;;26.73;15.13;;;9.10;99.90;;;;;;5055992;28;20489;-40
2022/01/18 11:43:41;;;;;;;27.47;16.17;;;9.10;99.90;;;;;;5068866;28;20878;-40
2022/01/18 11:46:36;;;;;;;25.97;15.50;;;9.20;99.90;;;;;;5072155;28;20506;-40
2022/01/18 11:49:06;;;;;;;22.53;14.53;;;9.60;99.90;;;;;;5070249;28;20476;-40
2022/01/18 11:51:40;;;;;;;27.70;14.50;;;10.70;99.90;;;;;;5068523;28;20431;-40
2022/01/18 11:57:23;;;;;;;19.33;12.50;;;11.50;99.90;;;;;;5060581;28;21000;-42
2022/01/18 11:59:55;;;;;;;23.10;12.60;;;11.30;99.90;;;;;;5068609;28;20475;-41
2022/01/18 12:02:37;;;;;;;21.93;11.23;;;12.10;99.90;;;;;;5069004;28;20453;-40
2022/01/18 12:05:12;;;;;;;17.10;10.50;;;12.60;99.90;;;;;;5071692;28;21009;-41
2022/01/18 12:07:43;;;;;;;16.37;10.77;;;12.30;99.90;;;;;;5077224;28;20928;-40
2022/01/18 12:10:33;;;;;;;16.50;9.63;;;12.30;99.90;;;;;;5063600;28;20443;-41
2022/01/18 12:12:59;;;;;;;19.13;10.93;;;11.70;99.90;;;;;;5063016;28;20426;-39
2022/01/18 12:15:26;;;;;;;20.30;11.07;;;11.50;99.90;;;;;;5069082;28;20877;-40
2022/01/18 12:18:01;;;;;;;16.03;10.00;;;11.90;99.90;;;;;;5069214;28;20499;-41
2022/01/18 12:20:46;;;;;;;14.97;8.73;;;11.60;99.90;;;;;;5068554;28;20498;-40
2022/01/18 12:23:13;;;;;;;16.37;9.73;;;11.10;99.90;;;;;;5064745;28;20987;-39
2022/01/18 12:34:28;;;;;;;20.77;12.77;;;11.60;99.90;;;;;;5068844;28;20415;-41
2022/01/18 12:39:51;;;;;;;27.10;14.87;;;10.30;99.90;;;;;;5062756;28;20822;-40
2022/01/18 12:44:58;;;;;;;21.63;14.47;;;9.90;99.90;;;;;;5067314;28;20941;-39
2022/01/18 12:47:24;;;;;;;20.97;14.70;;;9.70;99.90;;;;;;5083639;28;20501;-40
2022/01/18 12:49:51;;;;;;;23.50;13.23;;;9.80;99.90;;;;;;5082908;28;20506;-40
2022/01/18 12:52:17;;;;;;;22.07;13.80;;;9.80;99.90;;;;;;5088525;28;20429;-40
2022/01/18 12:54:43;;;;;;;29.50;14.47;;;9.60;99.90;;;;;;5088878;28;20992;-41
2022/01/18 12:57:22;;;;;;;26.40;13.37;;;9.70;99.90;;;;;;5057821;28;20197;-40
2022/01/18 13:00:06;;;;;;;23.00;12.07;;;9.30;99.90;;;;;;5064449;28;20604;-39
2022/01/18 13:02:32;;;;;;;19.33;12.10;;;9.20;99.90;;;;;;5067986;28;20799;-40
2022/01/18 13:04:59;;;;;;;25.13;14.00;;;9.20;99.90;;;;;;5067957;28;20430;-39
2022/01/18 13:07:26;;;;;;;22.53;13.80;;;9.20;99.90;;;;;;5074426;28;20419;-40
2022/01/18 13:09:59;;;;;;;22.23;13.67;;;9.20;99.90;;;;;;5087746;28;20757;-41
2022/01/18 13:12:32;;;;;;;21.60;13.13;;;9.20;99.90;;;;;;5058998;28;20442;-40
2022/01/18 13:15:00;;;;;;;22.03;13.13;;;9.10;99.90;;;;;;5067824;28;20909;-40
2022/01/18 13:23:21;;;;;;;26.43;11.90;;;9.00;99.90;;;;;;5067797;28;20430;-40
2022/01/18 13:25:56;;;;;;;22.07;12.03;;;9.00;99.90;;;;;;5057311;28;20432;-41
2022/01/18 13:28:32;;;;;;;21.07;12.27;;;9.10;99.90;;;;;;5064878;28;20451;-39
2022/01/18 13:31:16;;;;;;;18.83;11.93;;;9.10;99.90;;;;;;5066927;28;20427;-40
2022/01/18 13:33:52;;;;;;;21.63;12.20;;;9.10;99.90;;;;;;5067994;28;20839;-40
2022/01/18 13:36:18;;;;;;;22.97;12.00;;;9.10;99.90;;;;;;5067409;28;20513;-40
2022/01/18 13:38:43;;;;;;;20.87;11.50;;;9.10;99.90;;;;;;5065699;28;20538;-39
2022/01/18 13:41:09;;;;;;;20.57;11.67;;;9.20;99.90;;;;;;5053803;28;20475;-40
2022/01/18 13:43:35;;;;;;;20.00;11.23;;;9.30;99.90;;;;;;5066048;28;20659;-40
2022/01/18 13:46:00;;;;;;;19.07;10.27;;;9.10;99.90;;;;;;5067658;28;20679;-39
2022/01/18 13:48:34;;;;;;;19.03;10.23;;;9.20;99.90;;;;;;5067569;28;20427;-39
2022/01/18 13:51:09;;;;;;;18.27;9.87;;;9.10;99.90;;;;;;5067315;28;20189;-43
2022/01/18 13:53:35;;;;;;;18.30;9.00;;;9.10;99.90;;;;;;5067237;28;20427;-39
2022/01/18 13:56:23;;;;;;;17.00;9.53;;;9.00;99.90;;;;;;5060898;28;20618;-40
2022/01/18 13:58:58;;;;;;;14.77;9.67;;;9.10;99.90;;;;;;5063031;28;20870;-39
2022/01/18 14:01:24;;;;;;;14.40;9.40;;;9.10;99.90;;;;;;5065288;28;20474;-39
2022/01/18 14:03:56;;;;;;;14.40;9.13;;;9.00;99.90;;;;;;5066546;28;20506;-40
2022/01/18 14:06:36;;;;;;;15.63;9.23;;;9.00;99.90;;;;;;5067550;28;20438;-40
2022/01/18 14:09:03;;;;;;;21.57;10.13;;;9.00;99.90;;;;;;5067155;28;20999;-41
2022/01/18 14:11:35;;;;;;;15.83;9.57;;;9.10;99.90;;;;;;5057840;28;20977;-39
2022/01/18 14:14:04;;;;;;;13.23;8.27;;;8.80;99.90;;;;;;5064031;28;20455;-39
2022/01/18 14:16:32;;;;;;;14.70;8.83;;;8.80;99.90;;;;;;5067054;28;20430;-41
2022/01/18 14:19:03;;;;;;;13.67;8.53;;;8.90;99.90;;;;;;5067632;28;20872;-41
2022/01/18 14:21:39;;;;;;;16.70;9.80;;;8.60;99.90;;;;;;5066608;28;20493;-41
2022/01/18 14:24:05;;;;;;;16.90;9.23;;;8.70;99.90;;;;;;5067471;28;20459;-39
2022/01/18 14:26:31;;;;;;;18.40;8.20;;;8.70;99.90;;;;;;5061240;28;20439;-40
2022/01/18 14:29:00;;;;;;;12.43;8.80;;;8.70;99.90;;;;;;5060818;28;20446;-40